Time;durP1;ratioP1;P1;durP2;ratioP2;P2;SDS_P1;SDS_P2;PMS_P1;PMS_P2;Temp;Humidity;BMP_temperature;BMP_pressure;BME280_temperature;BME280_humidity;BME280_pressure;Samples;Min_cycle;Max_cycle;Signal;HPM_P1;HPM_P2
2022/06/07 00:04:16;;;;;;;9.05;4.50;;;;;;;-147.53;100.00;57128.34;10400495;28;20155;-78
2022/06/07 00:09:17;;;;;;;11.90;5.53;;;;;;;-147.53;100.00;57128.34;10405741;28;20037;-79
2022/06/07 00:14:19;;;;;;;14.18;6.53;;;;;;;-147.53;100.00;57128.34;10409732;28;20128;-77
2022/06/07 00:19:22;;;;;;;10.45;5.57;;;;;;;-147.53;100.00;57128.34;10409128;28;20176;-77
2022/06/07 00:24:24;;;;;;;15.07;5.50;;;;;;;-147.53;100.00;57128.34;10403956;28;20501;-77
2022/06/07 00:29:27;;;;;;;13.52;5.85;;;;;;;-147.53;100.00;57128.34;10398361;28;20132;-77
2022/06/07 00:34:29;;;;;;;15.70;5.93;;;;;;;-147.53;100.00;57128.34;10404376;28;20076;-77
2022/06/07 00:39:31;;;;;;;11.02;6.35;;;;;;;-147.53;100.00;57128.34;10379631;28;20048;-78
2022/06/07 00:44:39;;;;;;;13.85;6.32;;;;;;;-147.53;100.00;57128.34;10388911;28;20148;-77
2022/06/07 00:50:00;;;;;;;12.10;6.07;;;;;;;-147.53;100.00;57128.34;10389278;28;20033;-77
2022/06/07 00:55:05;;;;;;;10.63;5.82;;;;;;;-147.53;100.00;57128.34;10404163;28;20045;-77
2022/06/07 01:00:27;;;;;;;15.43;7.05;;;;;;;-147.53;100.00;57128.34;10395625;28;20076;-77
2022/06/07 01:05:31;;;;;;;10.65;6.63;;;;;;;-147.53;100.00;57128.34;10379516;28;20152;-76
2022/06/07 01:10:44;;;;;;;10.98;7.07;;;;;;;-147.53;100.00;57128.34;10392906;28;20053;-77
2022/06/07 01:15:57;;;;;;;11.45;7.65;;;;;;;-147.53;100.00;57128.34;10363907;28;20045;-77
2022/06/07 01:21:21;;;;;;;13.07;7.40;;;;;;;-147.53;100.00;57128.34;10384672;28;20037;-76
2022/06/07 01:26:25;;;;;;;12.63;8.10;;;;;;;-147.53;100.00;57128.34;10375816;28;20049;-77
2022/06/07 01:31:28;;;;;;;12.60;8.30;;;;;;;-147.53;100.00;57128.34;10367130;28;20106;-76
2022/06/07 01:36:30;;;;;;;10.43;7.38;;;;;;;-147.53;100.00;57128.34;10410920;28;20099;-77
2022/06/07 01:46:54;;;;;;;11.50;8.48;;;;;;;-147.53;100.00;57128.34;10393523;28;20099;-77
2022/06/07 01:51:58;;;;;;;13.82;8.38;;;;;;;-147.53;100.00;57128.34;10409531;28;20499;-77
2022/06/07 01:57:04;;;;;;;10.65;7.40;;;;;;;-147.53;100.00;57128.34;10390454;28;20057;-76
2022/06/07 02:02:07;;;;;;;13.63;8.15;;;;;;;-147.53;100.00;57128.34;10391953;28;20570;-76
2022/06/07 02:07:12;;;;;;;14.05;8.77;;;;;;;-147.53;100.00;57128.34;10414811;28;20073;-76
2022/06/07 02:12:18;;;;;;;12.32;8.63;;;;;;;-147.53;100.00;57128.34;10399325;28;20068;-76
2022/06/07 02:17:20;;;;;;;10.95;8.15;;;;;;;-147.53;100.00;57128.34;10398658;28;20083;-76
2022/06/07 02:22:48;;;;;;;13.00;9.10;;;;;;;-147.53;100.00;57128.34;10412498;28;20139;-75
2022/06/07 02:27:49;;;;;;;12.30;8.95;;;;;;;-147.53;100.00;57128.34;10395245;28;20055;-76
2022/06/07 02:32:51;;;;;;;12.20;8.45;;;;;;;-147.53;100.00;57128.34;10374784;28;20049;-75
2022/06/07 02:37:53;;;;;;;13.23;8.48;;;;;;;-147.53;100.00;57128.34;10396271;28;20050;-76
2022/06/07 02:42:55;;;;;;;12.90;8.35;;;;;;;-147.53;100.00;57128.34;10415323;28;20079;-77
2022/06/07 02:47:56;;;;;;;13.10;8.95;;;;;;;-147.53;100.00;57128.34;10421159;28;20136;-76
2022/06/07 02:52:59;;;;;;;14.85;9.15;;;;;;;-147.53;100.00;57128.34;10415041;28;20041;-77
2022/06/07 02:58:04;;;;;;;12.30;8.15;;;;;;;-147.53;100.00;57128.34;10403298;28;20042;-77
2022/06/07 03:03:07;;;;;;;12.27;9.10;;;;;;;-147.53;100.00;57128.34;10389686;28;20103;-76
2022/06/07 03:08:15;;;;;;;11.98;8.07;;;;;;;-147.53;100.00;57128.34;10389267;28;20517;-76
2022/06/07 03:13:18;;;;;;;13.05;8.77;;;;;;;-147.53;100.00;57128.34;10396121;28;20092;-75
2022/06/07 03:18:20;;;;;;;13.38;8.73;;;;;;;-147.53;100.00;57128.34;10392929;28;20037;-75
2022/06/07 03:23:22;;;;;;;13.20;8.95;;;;;;;-147.53;100.00;57128.34;10391444;28;20116;-76
2022/06/07 03:28:29;;;;;;;15.85;8.95;;;;;;;-147.53;100.00;57128.34;10389846;28;20111;-76
2022/06/07 03:33:34;;;;;;;13.63;8.75;;;;;;;-147.53;100.00;57128.34;10397164;28;20053;-77
2022/06/07 03:38:37;;;;;;;13.55;8.73;;;;;;;-147.53;100.00;57128.34;10397135;28;20497;-75
2022/06/07 03:43:39;;;;;;;14.43;8.90;;;;;;;-147.53;100.00;57128.34;10401110;28;20107;-75
2022/06/07 03:48:43;;;;;;;12.48;8.95;;;;;;;-147.53;100.00;57128.34;10384118;28;20097;-76
2022/06/07 03:53:47;;;;;;;13.93;9.48;;;;;;;-147.53;100.00;57128.34;10383393;28;20099;-75
2022/06/07 03:58:50;;;;;;;13.00;8.70;;;;;;;-147.53;100.00;57128.34;10387341;28;20046;-76
2022/06/07 04:03:55;;;;;;;14.48;9.70;;;;;;;-147.53;100.00;57128.34;10402602;28;20068;-76
2022/06/07 04:08:58;;;;;;;12.77;9.32;;;;;;;-147.53;100.00;57128.34;10375038;28;20117;-76
2022/06/07 04:14:02;;;;;;;14.05;10.30;;;;;;;-147.53;100.00;57128.34;10408354;28;20128;-76
2022/06/07 04:19:04;;;;;;;13.27;9.60;;;;;;;-147.53;100.00;57128.34;10398230;28;20060;-75
2022/06/07 04:24:06;;;;;;;15.00;10.57;;;;;;;-147.53;100.00;57128.34;10410566;28;20423;-76
2022/06/07 04:29:10;;;;;;;16.25;11.18;;;;;;;-147.53;100.00;57128.34;10393398;28;20060;-76
2022/06/07 04:34:14;;;;;;;15.43;11.65;;;;;;;-147.53;100.00;57128.34;10405213;28;20340;-75
2022/06/07 04:39:16;;;;;;;15.70;11.05;;;;;;;-147.53;100.00;57128.34;10392938;28;20095;-75
2022/06/07 04:44:31;;;;;;;16.40;11.00;;;;;;;-147.53;100.00;57128.34;10392012;28;20390;-75
2022/06/07 04:49:35;;;;;;;19.38;12.48;;;;;;;-147.53;100.00;57128.34;10356550;28;20133;-76
2022/06/07 04:54:38;;;;;;;18.23;12.88;;;;;;;-147.53;100.00;57128.34;10392124;28;20075;-75
2022/06/07 04:59:41;;;;;;;20.38;12.25;;;;;;;-147.53;100.00;57128.34;10376148;28;20042;-75
2022/06/07 05:04:43;;;;;;;19.60;12.80;;;;;;;-147.53;100.00;57128.34;10376992;28;20033;-75
2022/06/07 05:09:57;;;;;;;19.73;13.38;;;;;;;-147.53;100.00;57128.34;10367797;28;20048;-75
2022/06/07 05:15:06;;;;;;;19.38;12.38;;;;;;;-147.53;100.00;57128.34;10399275;28;20199;-75
2022/06/07 05:20:17;;;;;;;18.67;13.32;;;;;;;-147.53;100.00;57128.34;10391274;28;20057;-75
2022/06/07 05:25:22;;;;;;;17.65;12.35;;;;;;;-147.53;100.00;57128.34;10381489;28;20144;-74
2022/06/07 05:30:26;;;;;;;21.35;11.90;;;;;;;-147.53;100.00;57128.34;10367058;28;20057;-76
2022/06/07 05:35:39;;;;;;;19.30;12.60;;;;;;;-147.53;100.00;57128.34;10374168;28;20996;-76
2022/06/07 05:40:46;;;;;;;20.85;12.70;;;;;;;-147.53;100.00;57128.34;10389285;28;20056;-74
2022/06/07 05:45:53;;;;;;;18.15;11.35;;;;;;;-147.53;100.00;57128.34;10388680;28;20045;-75
2022/06/07 05:51:04;;;;;;;15.73;11.23;;;;;;;-147.53;100.00;57128.34;10392905;28;20045;-75
2022/06/07 05:56:10;;;;;;;17.25;11.23;;;;;;;-147.53;100.00;57128.34;10394608;28;20041;-75
2022/06/07 06:01:13;;;;;;;16.25;10.65;;;;;;;-147.53;100.00;57128.34;10402618;28;20056;-74
2022/06/07 06:06:19;;;;;;;18.30;11.23;;;;;;;-147.53;100.00;57128.34;10397587;28;20444;-75
2022/06/07 06:11:28;;;;;;;20.85;12.32;;;;;;;-147.53;100.00;57128.34;10407740;28;20049;-73
2022/06/07 06:16:48;;;;;;;15.68;10.82;;;;;;;-147.53;100.00;57128.34;10410773;28;20043;-75
2022/06/07 06:21:59;;;;;;;16.65;11.55;;;;;;;-147.53;100.00;57128.34;10401267;28;20462;-73
2022/06/07 06:27:03;;;;;;;16.98;11.55;;;;;;;-147.53;100.00;57128.34;10378675;28;20034;-72
2022/06/07 06:32:11;;;;;;;19.25;11.02;;;;;;;-147.53;100.00;57128.34;10384978;28;20053;-73
2022/06/07 06:37:18;;;;;;;20.15;11.38;;;;;;;-147.53;100.00;57128.34;10364195;28;20049;-72
2022/06/07 06:42:20;;;;;;;18.58;12.25;;;;;;;-147.53;100.00;57128.34;10395348;28;20053;-72
2022/06/07 06:47:44;;;;;;;17.90;12.07;;;;;;;-147.53;100.00;57128.34;10398326;28;20117;-73
2022/06/07 06:52:46;;;;;;;16.65;11.27;;;;;;;-147.53;100.00;57128.34;10351698;28;20057;-74
2022/06/07 06:57:49;;;;;;;20.35;12.32;;;;;;;-147.53;100.00;57128.34;10385871;28;20046;-73
2022/06/07 07:02:53;;;;;;;16.58;11.20;;;;;;;-147.53;100.00;57128.34;10407444;28;20520;-71
2022/06/07 07:07:55;;;;;;;20.33;11.63;;;;;;;-147.53;100.00;57128.34;10415679;28;20137;-73
2022/06/07 07:12:59;;;;;;;15.38;10.73;;;;;;;-147.53;100.00;57128.34;10414530;28;20052;-71
2022/06/07 07:18:08;;;;;;;15.90;10.90;;;;;;;-147.53;100.00;57128.34;10409880;28;20072;-73
2022/06/07 07:23:16;;;;;;;19.58;11.10;;;;;;;-147.53;100.00;57128.34;10382511;28;20061;-73
2022/06/07 07:28:18;;;;;;;13.48;8.95;;;;;;;-147.53;100.00;57128.34;10426901;28;20037;-74
2022/06/07 07:33:23;;;;;;;16.38;8.52;;;;;;;-147.53;100.00;57128.34;10406517;28;20041;-73
2022/06/07 07:38:25;;;;;;;13.00;8.35;;;;;;;-147.53;100.00;57128.34;10402235;28;20041;-73
2022/06/07 07:43:27;;;;;;;12.90;7.68;;;;;;;-147.53;100.00;57128.34;10395135;28;20683;-72
2022/06/07 07:48:28;;;;;;;15.00;8.00;;;;;;;-147.53;100.00;57128.34;10394755;28;20044;-73
2022/06/07 07:53:30;;;;;;;14.00;7.85;;;;;;;-147.53;100.00;57128.34;10398652;28;20038;-75
2022/06/07 07:58:33;;;;;;;18.05;7.32;;;;;;;-147.53;100.00;57128.34;10391433;28;20533;-73
2022/06/07 08:03:37;;;;;;;14.18;7.10;;;;;;;-147.53;100.00;57128.34;10343416;28;20050;-71
2022/06/07 08:08:53;;;;;;;14.32;7.13;;;;;;;-147.53;100.00;57128.34;10381849;28;20041;-74
2022/06/07 08:13:56;;;;;;;11.73;5.40;;;;;;;-147.53;100.00;57128.34;10370235;28;20065;-73
2022/06/07 08:18:58;;;;;;;9.35;5.82;;;;;;;-147.53;100.00;57128.34;10341923;28;20131;-74
2022/06/07 08:24:01;;;;;;;13.32;6.10;;;;;;;-147.53;100.00;57128.34;10394437;28;20068;-73
2022/06/07 08:29:03;;;;;;;8.80;5.25;;;;;;;-147.53;100.00;57128.34;10375517;28;20129;-74
2022/06/07 08:39:31;;;;;;;12.05;6.75;;;;;;;-147.53;100.00;57128.34;10396101;28;20094;-74
2022/06/07 08:44:39;;;;;;;12.57;7.25;;;;;;;-147.53;100.00;57128.34;10382962;28;20049;-72
2022/06/07 08:49:41;;;;;;;14.50;7.95;;;;;;;-147.53;100.00;57128.34;10398059;28;20136;-72
2022/06/07 08:54:43;;;;;;;17.38;8.38;;;;;;;-147.53;100.00;57128.34;10400699;28;20041;-73
2022/06/07 08:59:48;;;;;;;13.88;8.70;;;;;;;-147.53;100.00;57128.34;10382984;28;20514;-73
2022/06/07 09:04:53;;;;;;;16.65;9.25;;;;;;;-147.53;100.00;57128.34;10402487;28;20579;-72
2022/06/07 09:15:25;;;;;;;15.18;8.65;;;;;;;-147.53;100.00;57128.34;10360308;28;20052;-75
2022/06/07 09:20:32;;;;;;;17.23;9.45;;;;;;;-147.53;100.00;57128.34;10338060;28;20056;-75
2022/06/07 09:25:42;;;;;;;18.23;9.10;;;;;;;-147.53;100.00;57128.34;10379022;28;20412;-73
2022/06/07 09:30:47;;;;;;;20.35;10.40;;;;;;;-147.53;100.00;57128.34;10410561;28;20139;-74
2022/06/07 09:35:52;;;;;;;18.95;10.02;;;;;;;-147.53;100.00;57128.34;10411339;28;20045;-74
2022/06/07 09:40:55;;;;;;;17.98;10.27;;;;;;;-147.53;100.00;57128.34;10419863;28;20152;-74
2022/06/07 09:46:05;;;;;;;16.65;8.98;;;;;;;-147.53;100.00;57128.34;10416511;28;20073;-73
2022/06/07 09:51:09;;;;;;;19.13;9.63;;;;;;;-147.53;100.00;57128.34;10398690;28;20779;-74
2022/06/07 09:56:29;;;;;;;15.40;8.35;;;;;;;-147.53;100.00;57128.34;10422389;28;20044;-73
2022/06/07 10:01:43;;;;;;;14.03;8.97;;;;;;;-147.53;100.00;57128.34;10412009;28;20048;-73
2022/06/07 10:06:54;;;;;;;18.88;9.13;;;;;;;-147.53;100.00;57128.34;10401936;28;20069;-72
2022/06/07 10:12:09;;;;;;;18.70;10.10;;;;;;;-147.53;100.00;57128.34;10408028;28;20155;-74
2022/06/07 10:17:44;;;;;;;18.75;10.55;;;;;;;-147.53;100.00;57128.34;10391357;28;20128;-74
2022/06/07 10:23:09;;;;;;;19.45;11.25;;;;;;;-147.53;100.00;57128.34;10366615;28;20076;-74
2022/06/07 10:28:31;;;;;;;18.50;11.82;;;;;;;-147.53;100.00;57128.34;10393165;28;20037;-74
2022/06/07 10:33:54;;;;;;;21.33;11.07;;;;;;;-147.53;100.00;57128.34;10399086;28;20060;-73
2022/06/07 10:39:26;;;;;;;17.65;10.95;;;;;;;-147.53;100.00;57128.34;10411241;28;20076;-74
2022/06/07 10:44:31;;;;;;;16.33;9.60;;;;;;;-147.53;100.00;57128.34;10415105;28;20052;-73
2022/06/07 10:50:03;;;;;;;15.95;8.57;;;;;;;-147.53;100.00;57128.34;10395280;28;20144;-73
2022/06/07 10:55:29;;;;;;;14.68;8.43;;;;;;;-147.53;100.00;57128.34;10419857;28;20053;-73
2022/06/07 11:00:40;;;;;;;17.02;8.38;;;;;;;-147.53;100.00;57128.34;10433217;28;20432;-74
2022/06/07 11:11:08;;;;;;;17.67;9.07;;;;;;;-147.53;100.00;57128.34;10415593;28;20042;-74
2022/06/07 11:16:34;;;;;;;17.63;9.75;;;;;;;-147.53;100.00;57128.34;10440160;28;20057;-74
2022/06/07 11:21:43;;;;;;;21.35;10.27;;;;;;;-147.53;100.00;57128.34;10426333;28;20033;-73
2022/06/07 11:26:50;;;;;;;16.50;9.77;;;;;;;-147.53;100.00;57128.34;10413843;28;21065;-73
2022/06/07 11:31:52;;;;;;;18.38;9.00;;;;;;;-147.53;100.00;57128.34;10437323;28;20112;-72
2022/06/07 11:37:08;;;;;;;17.98;10.52;;;;;;;-147.53;100.00;57128.34;10419189;28;20079;-72
2022/06/07 11:42:13;;;;;;;16.10;9.77;;;;;;;-147.53;100.00;57128.34;10426332;28;20060;-73
2022/06/07 11:47:14;;;;;;;22.85;10.23;;;;;;;-147.53;100.00;57128.34;10431963;28;20097;-74
2022/06/07 11:52:31;;;;;;;16.88;10.38;;;;;;;-147.53;100.00;57128.34;10400840;28;20072;-74
2022/06/07 11:57:32;;;;;;;20.30;10.20;;;;;;;-147.53;100.00;57128.34;10417044;28;20045;-74
2022/06/07 12:02:37;;;;;;;17.83;9.98;;;;;;;-147.53;100.00;57128.34;10416072;28;20610;-74
2022/06/07 12:07:51;;;;;;;18.15;9.98;;;;;;;-147.53;100.00;57128.34;10438359;28;20041;-73
2022/06/07 12:13:11;;;;;;;18.83;10.32;;;;;;;-147.53;100.00;57128.34;10426627;28;20053;-75
2022/06/07 12:18:17;;;;;;;;;;;;;;;-147.53;100.00;57128.34;10420106;28;20041;-74
2022/06/07 12:23:31;;;;;;;17.50;10.65;;;;;;;-147.53;100.00;57128.34;10420633;28;20445;-76
2022/06/07 12:28:38;;;;;;;16.50;10.70;;;;;;;-147.53;100.00;57128.34;10438398;28;20091;-75
2022/06/07 12:33:40;;;;;;;16.80;10.63;;;;;;;-147.53;100.00;57128.34;10424805;28;20072;-76
2022/06/07 12:38:46;;;;;;;17.98;10.63;;;;;;;-147.53;100.00;57128.34;10431021;28;20033;-74
2022/06/07 12:43:54;;;;;;;18.45;11.25;;;;;;;-147.53;100.00;57128.34;10408438;28;20045;-74
2022/06/07 12:48:59;;;;;;;16.98;10.35;;;;;;;-147.53;100.00;57128.34;10419742;28;20474;-73
2022/06/07 12:54:15;;;;;;;17.05;9.77;;;;;;;-147.53;100.00;57128.34;10425877;28;20048;-74
2022/06/07 12:59:36;;;;;;;18.35;9.98;;;;;;;-147.53;100.00;57128.34;10419004;28;20033;-73
2022/06/07 13:04:57;;;;;;;16.23;9.60;;;;;;;-147.53;100.00;57128.34;10418235;28;20049;-75
2022/06/07 13:10:02;;;;;;;21.25;9.32;;;;;;;-147.53;100.00;57128.34;10424727;28;20124;-74
2022/06/07 13:15:13;;;;;;;17.55;8.90;;;;;;;-147.53;100.00;57128.34;10414333;28;20091;-74
2022/06/07 13:20:25;;;;;;;15.98;8.75;;;;;;;-147.53;100.00;57128.34;10416022;28;20548;-72
2022/06/07 13:25:31;;;;;;;18.10;8.40;;;;;;;-147.53;100.00;57128.34;10404683;28;20045;-74
2022/06/07 13:30:33;;;;;;;20.05;9.13;;;;;;;-147.53;100.00;57128.34;10422925;28;20036;-74
2022/06/07 13:35:55;;;;;;;14.88;8.27;;;;;;;-147.53;100.00;57128.34;10399557;28;20045;-74
2022/06/07 13:41:05;;;;;;;17.42;7.40;;;;;;;-147.53;100.00;57128.34;10424950;28;20077;-74
2022/06/07 13:46:26;;;;;;;15.25;7.63;;;;;;;-147.53;100.00;57128.34;10414068;28;20050;-74
2022/06/07 13:56:54;;;;;;;16.60;7.40;;;;;;;-147.53;100.00;57128.34;10416795;28;20152;-75
2022/06/07 14:01:56;;;;;;;12.43;7.22;;;;;;;-147.53;100.00;57128.34;10437974;28;20378;-74
2022/06/07 14:06:58;;;;;;;14.75;7.05;;;;;;;-147.53;100.00;57128.34;10390050;28;20048;-73
2022/06/07 14:12:01;;;;;;;15.98;7.13;;;;;;;-147.53;100.00;57128.34;10425001;28;20060;-74
2022/06/07 14:17:07;;;;;;;19.50;7.35;;;;;;;-147.53;100.00;57128.34;10422813;28;20064;-74
2022/06/07 14:22:24;;;;;;;13.32;7.82;;;;;;;-147.53;100.00;57128.34;10417296;28;20045;-74
2022/06/07 14:27:29;;;;;;;14.70;7.55;;;;;;;-147.53;100.00;57128.34;10429484;28;20568;-75
2022/06/07 14:32:37;;;;;;;17.02;7.47;;;;;;;-147.53;100.00;57128.34;10442688;28;20131;-74
2022/06/07 14:37:39;;;;;;;15.65;7.75;;;;;;;-147.53;100.00;57128.34;10408886;28;20164;-74
2022/06/07 14:42:43;;;;;;;13.95;6.70;;;;;;;-147.53;100.00;57128.34;10428100;28;20123;-71
2022/06/07 14:47:47;;;;;;;17.20;7.05;;;;;;;-147.53;100.00;57128.34;10422491;28;20127;-72
2022/06/07 14:52:49;;;;;;;14.10;6.85;;;;;;;-147.53;100.00;57128.34;10431605;28;20072;-72
2022/06/07 14:57:52;;;;;;;12.13;6.30;;;;;;;-147.53;100.00;57128.34;10422848;28;20045;-73
2022/06/07 15:02:57;;;;;;;12.60;5.78;;;;;;;-147.53;100.00;57128.34;10414629;28;20514;-72
2022/06/07 15:08:03;;;;;;;16.10;6.88;;;;;;;-147.53;100.00;57128.34;10427696;28;20049;-72
2022/06/07 15:13:28;;;;;;;15.30;5.90;;;;;;;-147.53;100.00;57128.34;10439365;28;20144;-72
2022/06/07 15:18:36;;;;;;;12.80;6.55;;;;;;;-147.53;100.00;57128.34;10426691;28;20416;-72
2022/06/07 15:23:38;;;;;;;11.63;5.88;;;;;;;-147.53;100.00;57128.34;10407181;28;20067;-73
2022/06/07 15:28:40;;;;;;;13.38;5.07;;;;;;;-147.53;100.00;57128.34;10419508;28;20069;-73
2022/06/07 15:33:44;;;;;;;12.48;5.60;;;;;;;-147.53;100.00;57128.34;10410488;28;20041;-74
2022/06/07 15:38:49;;;;;;;10.52;5.25;;;;;;;-147.53;100.00;57128.34;10412229;28;20433;-74
2022/06/07 15:43:51;;;;;;;9.90;5.03;;;;;;;-147.53;100.00;57128.34;10417644;28;20044;-74
2022/06/07 15:48:52;;;;;;;8.32;4.40;;;;;;;-147.53;100.00;57128.34;10426933;28;20635;-73
2022/06/07 15:53:54;;;;;;;8.48;4.35;;;;;;;-147.53;100.00;57128.34;10405845;28;20136;-74
2022/06/07 15:59:05;;;;;;;7.63;4.07;;;;;;;-147.53;100.00;57128.34;10375858;28;20139;-75
2022/06/07 16:04:08;;;;;;;8.20;3.75;;;;;;;-147.53;100.00;57128.34;10381589;28;20045;-74
2022/06/07 16:09:12;;;;;;;10.32;3.90;;;;;;;-147.53;100.00;57128.34;10387981;28;20069;-75
2022/06/07 16:14:14;;;;;;;13.20;3.50;;;;;;;-147.53;100.00;57128.34;10398525;28;20149;-73
2022/06/07 16:19:16;;;;;;;9.30;3.10;;;;;;;-147.53;100.00;57128.34;10398832;28;20128;-72
2022/06/07 16:24:17;;;;;;;8.52;2.92;;;;;;;-147.53;100.00;57128.34;10397991;28;20061;-73
2022/06/07 16:34:39;;;;;;;7.53;2.80;;;;;;;-147.53;100.00;57128.34;10399275;28;20571;-75
2022/06/07 16:39:41;;;;;;;8.13;2.50;;;;;;;-147.53;100.00;57128.34;10397710;28;20085;-71
2022/06/07 16:44:43;;;;;;;7.25;2.70;;;;;;;-147.53;100.00;57128.34;10396322;28;20125;-72
2022/06/07 16:49:44;;;;;;;5.43;2.20;;;;;;;-147.53;100.00;57128.34;10396806;28;20137;-71
2022/06/07 16:54:46;;;;;;;4.80;1.50;;;;;;;-147.53;100.00;57128.34;10404253;28;20037;-72
2022/06/07 16:59:49;;;;;;;3.90;1.35;;;;;;;-147.53;100.00;57128.34;10394839;28;20678;-71
2022/06/07 17:04:51;;;;;;;6.65;1.35;;;;;;;-147.53;100.00;57128.34;10409972;28;20049;-71
2022/06/07 17:09:54;;;;;;;6.63;1.90;;;;;;;-147.53;100.00;57128.34;10396809;28;20046;-72
2022/06/07 17:14:55;;;;;;;3.67;1.63;;;;;;;-147.53;100.00;57128.34;10397040;28;20041;-72
2022/06/07 17:19:57;;;;;;;8.07;1.60;;;;;;;-147.53;100.00;57128.34;10396822;28;20600;-72
2022/06/07 17:24:59;;;;;;;3.55;1.67;;;;;;;-147.53;100.00;57128.34;10396613;28;20083;-72
2022/06/07 17:30:01;;;;;;;5.68;1.77;;;;;;;-147.53;100.00;57128.34;10396335;28;20064;-73
2022/06/07 17:35:05;;;;;;;5.05;2.50;;;;;;;-147.53;100.00;57128.34;10363569;28;20080;-72
2022/06/07 17:40:10;;;;;;;5.53;2.47;;;;;;;-147.53;100.00;57128.34;10399196;28;20052;-71
2022/06/07 17:45:12;;;;;;;7.28;2.65;;;;;;;-147.53;100.00;57128.34;10395227;28;20071;-71
2022/06/07 17:50:33;;;;;;;6.28;2.03;;;;;;;-147.53;100.00;57128.34;10392378;28;20052;-72
2022/06/07 17:56:41;;;;;;;6.35;2.65;;;;;;;15.85;75.73;101147.31;10473848;28;21283;-70
2022/06/07 18:01:43;;;;;;;7.63;1.80;;;;;;;15.80;75.74;101126.19;10467589;28;20140;-71
2022/06/07 18:06:45;;;;;;;4.55;2.08;;;;;;;15.79;75.64;101127.06;10432935;28;20069;-71
2022/06/07 18:11:46;;;;;;;7.15;2.25;;;;;;;15.77;75.26;101112.09;10433664;28;20065;-70
2022/06/07 18:16:48;;;;;;;4.68;1.73;;;;;;;15.68;75.57;101079.50;10447561;28;20139;-71
2022/06/07 18:21:51;;;;;;;3.95;1.45;;;;;;;15.54;75.34;101015.31;10473692;28;20227;-71
2022/06/07 18:26:53;;;;;;;7.82;1.95;;;;;;;15.37;75.28;100941.41;10473974;28;20059;-71
2022/06/07 18:31:55;;;;;;;6.07;2.00;;;;;;;15.33;75.22;100924.69;10477268;28;20456;-71
2022/06/07 18:36:57;;;;;;;6.15;1.80;;;;;;;15.23;75.13;100882.50;10474417;28;20500;-71
2022/06/07 18:41:59;;;;;;;5.05;1.83;;;;;;;15.21;74.93;100866.69;10471813;28;20051;-71
2022/06/07 18:47:02;;;;;;;8.93;2.15;;;;;;;15.14;75.01;100841.19;10471500;28;20087;-71
2022/06/07 18:52:04;;;;;;;6.15;2.20;;;;;;;15.09;74.80;100813.94;10471648;28;20382;-71
2022/06/07 18:57:07;;;;;;;7.80;2.40;;;;;;;15.05;74.66;100801.63;10471754;28;20143;-71
2022/06/07 19:02:19;;;;;;;4.50;2.08;;;;;;;15.10;74.72;100823.59;10471436;28;20131;-70
2022/06/07 19:07:21;;;;;;;5.97;2.35;;;;;;;15.07;74.67;100805.13;10447858;28;20528;-70
2022/06/07 19:12:23;;;;;;;6.07;2.10;;;;;;;15.06;74.81;100811.28;10443466;28;20473;-70
2022/06/07 19:17:24;;;;;;;8.85;2.88;;;;;;;15.03;74.77;100785.81;10443793;28;20144;-71
2022/06/07 19:22:26;;;;;;;5.95;2.30;;;;;;;14.93;74.63;100748.03;10450931;28;20119;-71
2022/06/07 19:27:27;;;;;;;5.18;1.80;;;;;;;14.85;74.69;100716.41;10443511;28;20044;-71
2022/06/07 19:32:29;;;;;;;6.43;2.40;;;;;;;14.76;74.80;100673.38;10442881;28;20088;-71
2022/06/07 19:37:31;;;;;;;5.40;2.08;;;;;;;14.57;74.72;100602.22;10456036;28;20053;-71
2022/06/07 19:42:33;;;;;;;7.00;2.22;;;;;;;14.45;74.76;100539.03;10441928;28;20048;-71
2022/06/07 19:47:34;;;;;;;7.28;2.65;;;;;;;14.25;74.65;100466.22;10441543;28;20131;-71
2022/06/07 19:52:39;;;;;;;4.40;2.00;;;;;;;14.11;74.59;100407.44;10441416;28;20141;-71
2022/06/07 19:57:41;;;;;;;6.40;2.25;;;;;;;14.00;74.55;100356.63;10441578;28;20045;-71
2022/06/07 20:02:47;;;;;;;6.45;2.38;;;;;;;13.80;74.70;100281.25;10441342;28;20064;-71
2022/06/07 20:07:49;;;;;;;7.05;2.28;;;;;;;13.64;74.81;100208.53;10440768;28;20076;-71
2022/06/07 20:12:51;;;;;;;10.70;2.90;;;;;;;13.47;74.59;100142.88;10447904;28;20033;-72
2022/06/07 20:17:52;;;;;;;9.32;2.83;;;;;;;13.25;74.73;100051.75;10446536;28;20051;-72
2022/06/07 20:22:54;;;;;;;7.93;2.92;;;;;;;13.04;74.74;99967.78;10440827;28;20118;-72
2022/06/07 20:27:56;;;;;;;8.23;2.75;;;;;;;12.89;74.69;99906.53;10440563;28;20119;-71
2022/06/07 20:32:57;;;;;;;6.82;2.60;;;;;;;12.77;74.86;99869.84;10444932;28;20068;-71
2022/06/07 20:38:00;;;;;;;7.82;2.65;;;;;;;12.69;74.87;99833.13;10439936;28;20063;-71
2022/06/07 20:43:02;;;;;;;7.03;2.97;;;;;;;12.60;74.73;99790.31;10440150;28;20041;-73
2022/06/07 20:48:09;;;;;;;11.02;4.10;;;;;;;12.45;74.81;99737.03;10441169;28;20083;-72
2022/06/07 20:53:11;;;;;;;8.93;2.97;;;;;;;12.31;75.06;99682.00;10444837;28;20041;-72
2022/06/07 20:58:14;;;;;;;6.55;3.22;;;;;;;12.19;75.01;99638.34;10440440;28;20057;-72
2022/06/07 21:03:17;;;;;;;7.75;3.00;;;;;;;12.06;75.13;99580.75;10439024;28;20047;-73
2022/06/07 21:08:18;;;;;;;10.00;3.28;;;;;;;11.93;75.17;99530.13;10439448;28;20076;-71
2022/06/07 21:13:21;;;;;;;7.93;3.47;;;;;;;11.72;75.12;99442.81;10438816;28;20063;-71
2022/06/07 21:18:22;;;;;;;9.05;3.78;;;;;;;11.48;75.23;99341.69;10438750;28;20052;-72
2022/06/07 21:23:24;;;;;;;7.72;3.30;;;;;;;-147.53;100.00;57128.34;10438916;28;20096;-72
2022/06/07 21:28:26;;;;;;;5.53;3.17;;;;;;;-147.53;100.00;57128.34;10444912;28;20056;-71
2022/06/07 21:33:27;;;;;;;7.53;3.15;;;;;;;-147.53;100.00;57128.34;10440520;28;20390;-71
2022/06/07 21:38:29;;;;;;;7.35;3.42;;;;;;;11.10;75.45;99202.31;10445257;28;20041;-73
2022/06/07 21:43:32;;;;;;;7.68;3.67;;;;;;;11.01;75.70;99170.97;10442789;28;20045;-72
2022/06/07 21:48:34;;;;;;;6.43;3.58;;;;;;;10.92;75.75;99142.28;10438589;28;20067;-71
2022/06/07 21:53:36;;;;;;;8.05;3.95;;;;;;;10.82;75.68;99098.75;10443640;28;20049;-72
2022/06/07 21:58:38;;;;;;;8.93;3.78;;;;;;;10.72;75.89;99061.31;10437869;28;20072;-71
2022/06/07 22:03:39;;;;;;;10.07;4.10;;;;;;;10.63;75.97;99025.66;10437660;28;20079;-71
2022/06/07 22:08:42;;;;;;;7.25;3.45;;;;;;;10.57;76.00;99004.78;10437178;28;20420;-71
2022/06/07 22:13:45;;;;;;;13.75;3.92;;;;;;;10.49;76.17;98969.97;10436940;28;20059;-71
2022/06/07 22:18:47;;;;;;;7.78;3.58;;;;;;;10.40;76.17;98934.31;10437157;28;20057;-72
2022/06/07 22:23:49;;;;;;;11.43;4.25;;;;;;;10.31;76.23;98903.84;10443063;28;20845;-72
2022/06/07 22:34:11;;;;;;;9.95;5.55;;;;;;;10.19;76.58;98856.94;10436178;28;20520;-72
2022/06/07 22:39:12;;;;;;;8.00;4.78;;;;;;;10.12;76.59;98834.34;10438184;28;20423;-72
2022/06/07 22:44:14;;;;;;;8.52;4.68;;;;;;;10.05;76.66;98810.88;10457104;28;20084;-70
2022/06/07 22:49:17;;;;;;;7.35;4.30;;;;;;;10.00;76.72;98794.41;10444282;28;20041;-72
2022/06/07 22:54:24;;;;;;;10.25;4.72;;;;;;;9.95;76.85;98785.72;10443372;28;20415;-71
2022/06/07 22:59:29;;;;;;;9.75;5.18;;;;;;;9.91;76.88;98763.16;10443580;28;20049;-72
2022/06/07 23:04:45;;;;;;;11.07;5.15;;;;;;;9.80;77.01;98723.19;10450034;28;20136;-71
2022/06/07 23:09:46;;;;;;;9.52;5.22;;;;;;;9.72;77.25;98695.41;10442823;28;20144;-72
2022/06/07 23:20:08;;;;;;;16.50;6.38;;;;;;;9.65;77.23;98667.66;10442424;28;20085;-71
2022/06/07 23:25:10;;;;;;;8.60;5.80;;;;;;;9.58;77.48;98642.47;10442564;28;20117;-71
2022/06/07 23:30:12;;;;;;;9.23;5.05;;;;;;;9.56;77.63;98639.00;10441840;28;20084;-71
2022/06/07 23:35:15;;;;;;;10.43;5.45;;;;;;;9.50;77.58;98611.22;10442803;28;20048;-71